This is the latest recevied weather packets stored in our database for station/object K6HFP. If no packets are shown the sender has not sent any weather packets the latest 1 day(s).
| Time | Temp. | Humidity | Pressure | Rain* | Wind** | Luminosity | Snow |
|---|---|---|---|---|---|---|---|
| 1778028678 | 15.56° C | 76% | 1013.6 hPa | 0 mm | 1.79 m/s, 134° | 87 W/m² | - |
| 1778028375 | 15.56° C | 76% | 1013.3 hPa | 0 mm | 2.68 m/s, 167° | 105 W/m² | - |
| 1778028072 | 15.56° C | 76% | 1013.5 hPa | 0 mm | 1.34 m/s, 166° | 113 W/m² | - |
| 1778027768 | 15.56° C | 76% | 1013.5 hPa | 0 mm | 1.34 m/s, 143° | 124 W/m² | - |
| 1778027464 | 15.56° C | 76% | 1013.5 hPa | 0 mm | 1.34 m/s, 142° | 136 W/m² | - |
| 1778027160 | 15.56° C | 76% | 1013.5 hPa | 0 mm | 1.34 m/s, 128° | 123 W/m² | - |
| 1778026856 | 15.56° C | 76% | 1013.5 hPa | 0 mm | 1.34 m/s, 155° | 127 W/m² | - |
| 1778026553 | 15.56° C | 74% | 1013.4 hPa | 0 mm | 1.79 m/s, 171° | 157 W/m² | - |
| 1778026250 | 15.56° C | 75% | 1013.3 hPa | 0 mm | 1.34 m/s, 152° | 175 W/m² | - |
| 1778025947 | 15.56° C | 76% | 1013.5 hPa | 0 mm | 1.79 m/s, 161° | 178 W/m² | - |
| 1778025645 | 15.56° C | 75% | 1013.3 hPa | 0 mm | 1.79 m/s, 171° | 183 W/m² | - |
| 1778025343 | 15.56° C | 76% | 1013.4 hPa | 0 mm | 1.34 m/s, 132° | 180 W/m² | - |
| 1778025039 | 15.56° C | 75% | 1013.3 hPa | 0 mm | 1.34 m/s, 174° | 188 W/m² | - |
| 1778024736 | 15.56° C | 76% | 1013.4 hPa | 0 mm | 1.34 m/s, 172° | 182 W/m² | - |
| 1778024433 | 15.56° C | 75% | 1013.4 hPa | 0 mm | 1.34 m/s, 171° | 189 W/m² | - |
| 1778024131 | 15.56° C | 74% | 1013.4 hPa | 0 mm | 1.34 m/s, 139° | 202 W/m² | - |
| 1778023828 | 15.56° C | 74% | 1013.5 hPa | 0 mm | 1.79 m/s, 168° | 211 W/m² | - |
| 1778023526 | 16.11° C | 73% | 1013.4 hPa | 0 mm | 2.68 m/s, 166° | 220 W/m² | - |
| 1778023223 | 16.11° C | 74% | 1013.3 hPa | 0 mm | 1.34 m/s, 153° | 225 W/m² | - |
| 1778022920 | 16.11° C | 74% | 1013.6 hPa | 0 mm | 1.34 m/s, 161° | 223 W/m² | - |
| 1778022619 | 16.11° C | 72% | 1013.7 hPa | 0 mm | 1.34 m/s, 152° | 241 W/m² | - |
| 1778022315 | 16.11° C | 73% | 1013.5 hPa | 0 mm | 1.34 m/s, 164° | 266 W/m² | - |
| 1778022012 | 16.11° C | 72% | 1013.7 hPa | 0 mm | 0.89 m/s, 148° | 288 W/m² | - |
| 1778021709 | 16.11° C | 73% | 1013.8 hPa | 0 mm | 1.79 m/s, 168° | 310 W/m² | - |
| 1778021405 | 16.11° C | 71% | 1013.6 hPa | 0 mm | 0.45 m/s, 123° | 311 W/m² | - |
* Rain latest hour (hover to see other rain measurements)
** Current wind speed in m/s (hover to see current wind gust speed)